Accueil
METAR-TAF:

METAR-TAF

Aéroports :

Aéroport international Shirak

Gyumri, Arménie

latitude: 40-45-01N, longitude: 043-51-33E, altitude: 1524 m

Observation

Le bulletin a été fait il y a 18 minutes, à 11:30 UTC
Vent calme
Température -2°C
Humidité 69%
Pression 1022 hPa
Visibilité: 9000 m
Quelques nuages à une hauteur de 1100 ft
Ciel couvert à une hauteur de 2600 ft

METAR: UDSG 201130Z 00000KT 9000 FEW011 OVC026 M02/M07 Q1022 R02/590348 NOSIG

Heure: 15:48 (11:48 UTC)

Prévision

Le bulletin a été fait il y a 47 minutes, à 11:01 UTC
Prévision valable du 20 à 12 UTC au 21 à 12 UTC
Vent 8 kt de ouest/sud-ouest
Visibilité: 5000 m
Ciel couvert à une hauteur de 2000 ft
brume
Temporairement
du 20 à 12 UTC au 20 à 21 UTC
Vent 18 kt de nord
Visibilité: 1000 m
Quelques nuages à une hauteur de 500 ft
Ciel couvert à une hauteur de 1000 ft
neige, brume

TAF: UDSG 201101Z 2012/2112 24008KT 5000 BR OVC020 TEMPO 2012/2021 36018KT 1000 SN BR FEW005 OVC010

Observations et prévisions météorologiques de plus de 4000 aéroports (messages METAR et TAF).

Les stations disponibles sont représentées par des disques jaunes et rouges sur la carte.

Passer la souris dessus pour voir le nom de la station.

Cliquer dessus pour voir les observations et prévisions météorologiques.

Pour changer de carte: cliquez sur les boutons verts avec une croix noire pour zoomer, sur le bouton vert avec un tiret pour effectuer un zoom arrière, ou sur les flèches vertes pour les cartes adjacentes.


METAR-TAF: